sensor_id;sensor_type;location;lat;lon;timestamp;P1;durP1;ratioP1;P2;durP2;ratioP2
43160;SDS011;40968;52.342;5.528;2022-09-09T00:00:26;5.53;;;1.85;;
43160;SDS011;40968;52.342;5.528;2022-09-09T00:03:01;6.45;;;1.85;;
43160;SDS011;40968;52.342;5.528;2022-09-09T00:05:37;2.80;;;1.52;;
43160;SDS011;40968;52.342;5.528;2022-09-09T00:08:11;4.55;;;1.67;;
43160;SDS011;40968;52.342;5.528;2022-09-09T00:10:44;2.05;;;0.98;;
43160;SDS011;40968;52.342;5.528;2022-09-09T00:13:16;5.78;;;1.65;;
43160;SDS011;40968;52.342;5.528;2022-09-09T00:15:52;2.50;;;0.85;;
43160;SDS011;40968;52.342;5.528;2022-09-09T00:18:27;1.77;;;0.88;;
43160;SDS011;40968;52.342;5.528;2022-09-09T00:21:03;2.13;;;1.00;;
43160;SDS011;40968;52.342;5.528;2022-09-09T00:23:33;3.58;;;0.95;;
43160;SDS011;40968;52.342;5.528;2022-09-09T00:26:04;1.85;;;0.77;;
43160;SDS011;40968;52.342;5.528;2022-09-09T00:28:36;2.92;;;0.98;;
43160;SDS011;40968;52.342;5.528;2022-09-09T00:31:11;4.35;;;1.05;;
43160;SDS011;40968;52.342;5.528;2022-09-09T00:33:42;3.72;;;0.88;;
43160;SDS011;40968;52.342;5.528;2022-09-09T00:36:12;1.73;;;1.10;;
43160;SDS011;40968;52.342;5.528;2022-09-09T00:38:42;1.35;;;0.77;;
43160;SDS011;40968;52.342;5.528;2022-09-09T00:41:12;3.08;;;1.00;;
43160;SDS011;40968;52.342;5.528;2022-09-09T00:43:46;3.15;;;1.00;;
43160;SDS011;40968;52.342;5.528;2022-09-09T00:46:26;3.72;;;1.17;;
43160;SDS011;40968;52.342;5.528;2022-09-09T00:49:22;2.00;;;1.10;;
43160;SDS011;40968;52.342;5.528;2022-09-09T00:51:59;2.85;;;1.20;;
43160;SDS011;40968;52.342;5.528;2022-09-09T00:54:37;3.20;;;1.00;;
43160;SDS011;40968;52.342;5.528;2022-09-09T00:57:13;3.08;;;1.17;;
43160;SDS011;40968;52.342;5.528;2022-09-09T00:59:50;1.88;;;1.00;;
43160;SDS011;40968;52.342;5.528;2022-09-09T01:02:22;4.53;;;1.10;;
43160;SDS011;40968;52.342;5.528;2022-09-09T01:04:55;2.38;;;1.10;;
43160;SDS011;40968;52.342;5.528;2022-09-09T01:07:28;1.90;;;1.10;;
43160;SDS011;40968;52.342;5.528;2022-09-09T01:09:55;5.53;;;1.38;;
43160;SDS011;40968;52.342;5.528;2022-09-09T01:12:24;2.78;;;1.15;;
43160;SDS011;40968;52.342;5.528;2022-09-09T01:14:56;9.10;;;1.50;;
43160;SDS011;40968;52.342;5.528;2022-09-09T01:17:30;1.52;;;1.08;;
43160;SDS011;40968;52.342;5.528;2022-09-09T01:22:34;3.40;;;1.55;;
43160;SDS011;40968;52.342;5.528;2022-09-09T01:25:22;4.38;;;1.77;;
43160;SDS011;40968;52.342;5.528;2022-09-09T01:27:58;7.07;;;2.08;;
43160;SDS011;40968;52.342;5.528;2022-09-09T01:30:26;3.45;;;1.88;;
43160;SDS011;40968;52.342;5.528;2022-09-09T01:32:55;7.25;;;2.75;;
43160;SDS011;40968;52.342;5.528;2022-09-09T01:35:33;3.75;;;2.10;;
43160;SDS011;40968;52.342;5.528;2022-09-09T01:40:32;9.15;;;2.40;;
43160;SDS011;40968;52.342;5.528;2022-09-09T01:43:01;8.90;;;2.45;;
43160;SDS011;40968;52.342;5.528;2022-09-09T01:45:28;7.32;;;2.58;;
43160;SDS011;40968;52.342;5.528;2022-09-09T01:47:55;7.30;;;2.58;;
43160;SDS011;40968;52.342;5.528;2022-09-09T01:50:22;9.00;;;3.03;;
43160;SDS011;40968;52.342;5.528;2022-09-09T01:52:50;12.95;;;2.65;;
43160;SDS011;40968;52.342;5.528;2022-09-09T01:55:22;7.50;;;2.63;;
43160;SDS011;40968;52.342;5.528;2022-09-09T01:57:56;9.77;;;2.97;;
43160;SDS011;40968;52.342;5.528;2022-09-09T02:00:37;10.70;;;3.63;;
43160;SDS011;40968;52.342;5.528;2022-09-09T02:03:13;5.13;;;2.65;;
43160;SDS011;40968;52.342;5.528;2022-09-09T02:05:49;8.30;;;2.70;;
43160;SDS011;40968;52.342;5.528;2022-09-09T02:08:24;10.45;;;2.72;;
43160;SDS011;40968;52.342;5.528;2022-09-09T02:10:56;5.18;;;2.42;;
43160;SDS011;40968;52.342;5.528;2022-09-09T02:13:29;13.43;;;3.42;;
43160;SDS011;40968;52.342;5.528;2022-09-09T02:16:00;9.77;;;2.95;;
43160;SDS011;40968;52.342;5.528;2022-09-09T02:18:32;13.18;;;2.88;;
43160;SDS011;40968;52.342;5.528;2022-09-09T02:21:03;7.28;;;3.10;;
43160;SDS011;40968;52.342;5.528;2022-09-09T02:23:29;8.57;;;3.00;;
43160;SDS011;40968;52.342;5.528;2022-09-09T02:25:58;9.05;;;2.60;;
43160;SDS011;40968;52.342;5.528;2022-09-09T02:28:26;9.88;;;3.15;;
43160;SDS011;40968;52.342;5.528;2022-09-09T02:30:58;11.20;;;3.60;;
43160;SDS011;40968;52.342;5.528;2022-09-09T02:33:26;6.85;;;3.55;;
43160;SDS011;40968;52.342;5.528;2022-09-09T02:35:56;9.73;;;3.67;;
43160;SDS011;40968;52.342;5.528;2022-09-09T02:38:28;7.22;;;3.28;;
43160;SDS011;40968;52.342;5.528;2022-09-09T02:41:00;10.00;;;4.35;;
43160;SDS011;40968;52.342;5.528;2022-09-09T02:43:31;11.52;;;4.10;;
43160;SDS011;40968;52.342;5.528;2022-09-09T02:46:01;8.52;;;3.55;;
43160;SDS011;40968;52.342;5.528;2022-09-09T02:48:35;9.98;;;4.13;;
43160;SDS011;40968;52.342;5.528;2022-09-09T02:51:15;8.95;;;3.95;;
43160;SDS011;40968;52.342;5.528;2022-09-09T02:53:49;9.60;;;4.18;;
43160;SDS011;40968;52.342;5.528;2022-09-09T02:56:25;12.23;;;4.20;;
43160;SDS011;40968;52.342;5.528;2022-09-09T02:58:59;17.70;;;4.63;;
43160;SDS011;40968;52.342;5.528;2022-09-09T03:01:25;14.80;;;4.07;;
43160;SDS011;40968;52.342;5.528;2022-09-09T03:03:52;11.77;;;3.97;;
43160;SDS011;40968;52.342;5.528;2022-09-09T03:06:20;11.95;;;3.80;;
43160;SDS011;40968;52.342;5.528;2022-09-09T03:08:46;11.65;;;3.60;;
43160;SDS011;40968;52.342;5.528;2022-09-09T03:11:14;10.93;;;4.15;;
43160;SDS011;40968;52.342;5.528;2022-09-09T03:13:41;11.50;;;3.90;;
43160;SDS011;40968;52.342;5.528;2022-09-09T03:16:09;12.15;;;3.72;;
43160;SDS011;40968;52.342;5.528;2022-09-09T03:18:35;11.35;;;4.18;;
43160;SDS011;40968;52.342;5.528;2022-09-09T03:21:02;10.93;;;3.85;;
43160;SDS011;40968;52.342;5.528;2022-09-09T03:23:28;9.13;;;3.65;;
43160;SDS011;40968;52.342;5.528;2022-09-09T03:25:55;10.95;;;3.67;;
43160;SDS011;40968;52.342;5.528;2022-09-09T03:28:23;12.52;;;4.10;;
43160;SDS011;40968;52.342;5.528;2022-09-09T03:30:57;12.45;;;3.88;;
43160;SDS011;40968;52.342;5.528;2022-09-09T03:33:26;7.82;;;3.80;;
43160;SDS011;40968;52.342;5.528;2022-09-09T03:35:53;12.05;;;4.10;;
43160;SDS011;40968;52.342;5.528;2022-09-09T03:38:21;11.23;;;4.30;;
43160;SDS011;40968;52.342;5.528;2022-09-09T03:40:49;9.82;;;3.75;;
43160;SDS011;40968;52.342;5.528;2022-09-09T03:43:16;10.07;;;4.20;;
43160;SDS011;40968;52.342;5.528;2022-09-09T03:45:44;12.77;;;4.63;;
43160;SDS011;40968;52.342;5.528;2022-09-09T03:48:12;12.32;;;4.18;;
43160;SDS011;40968;52.342;5.528;2022-09-09T03:50:40;11.30;;;5.00;;
43160;SDS011;40968;52.342;5.528;2022-09-09T03:53:10;10.75;;;4.20;;
43160;SDS011;40968;52.342;5.528;2022-09-09T03:55:37;9.10;;;4.15;;
43160;SDS011;40968;52.342;5.528;2022-09-09T03:58:03;10.02;;;4.38;;
43160;SDS011;40968;52.342;5.528;2022-09-09T04:00:30;11.15;;;4.53;;
43160;SDS011;40968;52.342;5.528;2022-09-09T04:02:57;12.88;;;4.85;;
43160;SDS011;40968;52.342;5.528;2022-09-09T04:05:23;11.55;;;4.82;;
43160;SDS011;40968;52.342;5.528;2022-09-09T04:07:51;10.32;;;4.30;;
43160;SDS011;40968;52.342;5.528;2022-09-09T04:10:19;11.38;;;4.50;;
43160;SDS011;40968;52.342;5.528;2022-09-09T04:12:46;13.07;;;4.57;;
43160;SDS011;40968;52.342;5.528;2022-09-09T04:15:12;13.07;;;4.97;;
43160;SDS011;40968;52.342;5.528;2022-09-09T04:17:39;13.07;;;4.65;;
43160;SDS011;40968;52.342;5.528;2022-09-09T04:20:05;11.50;;;4.40;;
43160;SDS011;40968;52.342;5.528;2022-09-09T04:22:36;14.20;;;4.78;;
43160;SDS011;40968;52.342;5.528;2022-09-09T04:25:05;15.63;;;4.75;;
43160;SDS011;40968;52.342;5.528;2022-09-09T04:27:32;10.25;;;4.72;;
43160;SDS011;40968;52.342;5.528;2022-09-09T04:29:59;10.77;;;4.65;;
43160;SDS011;40968;52.342;5.528;2022-09-09T04:32:25;8.88;;;4.43;;
43160;SDS011;40968;52.342;5.528;2022-09-09T04:34:52;12.45;;;4.78;;
43160;SDS011;40968;52.342;5.528;2022-09-09T04:37:19;12.63;;;5.10;;
43160;SDS011;40968;52.342;5.528;2022-09-09T04:39:45;10.23;;;4.40;;
43160;SDS011;40968;52.342;5.528;2022-09-09T04:42:13;16.85;;;4.97;;
43160;SDS011;40968;52.342;5.528;2022-09-09T04:44:41;14.70;;;4.72;;
43160;SDS011;40968;52.342;5.528;2022-09-09T04:47:07;13.55;;;4.57;;
43160;SDS011;40968;52.342;5.528;2022-09-09T04:49:34;16.10;;;5.25;;
43160;SDS011;40968;52.342;5.528;2022-09-09T04:52:01;14.68;;;5.20;;
43160;SDS011;40968;52.342;5.528;2022-09-09T04:54:28;11.48;;;4.45;;
43160;SDS011;40968;52.342;5.528;2022-09-09T04:56:55;13.90;;;5.50;;
43160;SDS011;40968;52.342;5.528;2022-09-09T04:59:23;17.02;;;4.82;;
43160;SDS011;40968;52.342;5.528;2022-09-09T05:01:50;17.75;;;4.78;;
43160;SDS011;40968;52.342;5.528;2022-09-09T05:04:16;12.85;;;4.85;;
43160;SDS011;40968;52.342;5.528;2022-09-09T05:06:44;15.77;;;4.55;;
43160;SDS011;40968;52.342;5.528;2022-09-09T05:09:11;12.95;;;4.57;;
43160;SDS011;40968;52.342;5.528;2022-09-09T05:11:41;15.85;;;4.65;;
43160;SDS011;40968;52.342;5.528;2022-09-09T05:14:09;11.95;;;4.82;;
43160;SDS011;40968;52.342;5.528;2022-09-09T05:16:37;12.90;;;3.97;;
43160;SDS011;40968;52.342;5.528;2022-09-09T05:19:04;14.88;;;4.95;;
43160;SDS011;40968;52.342;5.528;2022-09-09T05:21:33;21.60;;;5.15;;
43160;SDS011;40968;52.342;5.528;2022-09-09T05:24:00;11.45;;;4.20;;
43160;SDS011;40968;52.342;5.528;2022-09-09T05:26:26;9.10;;;3.92;;
43160;SDS011;40968;52.342;5.528;2022-09-09T05:28:54;12.90;;;4.68;;
43160;SDS011;40968;52.342;5.528;2022-09-09T05:31:22;15.05;;;4.18;;
43160;SDS011;40968;52.342;5.528;2022-09-09T05:33:52;12.35;;;4.25;;
43160;SDS011;40968;52.342;5.528;2022-09-09T05:36:19;11.00;;;4.00;;
43160;SDS011;40968;52.342;5.528;2022-09-09T05:38:46;14.43;;;4.47;;
43160;SDS011;40968;52.342;5.528;2022-09-09T05:41:13;12.80;;;4.05;;
43160;SDS011;40968;52.342;5.528;2022-09-09T05:43:41;14.07;;;4.20;;
43160;SDS011;40968;52.342;5.528;2022-09-09T05:46:09;15.48;;;4.30;;
43160;SDS011;40968;52.342;5.528;2022-09-09T05:48:41;10.00;;;4.03;;
43160;SDS011;40968;52.342;5.528;2022-09-09T05:51:10;11.15;;;4.30;;
43160;SDS011;40968;52.342;5.528;2022-09-09T05:53:40;11.27;;;4.13;;
43160;SDS011;40968;52.342;5.528;2022-09-09T05:56:08;14.77;;;4.70;;
43160;SDS011;40968;52.342;5.528;2022-09-09T05:58:36;16.35;;;4.28;;
43160;SDS011;40968;52.342;5.528;2022-09-09T06:01:04;11.43;;;3.97;;
43160;SDS011;40968;52.342;5.528;2022-09-09T06:03:33;20.55;;;4.65;;
43160;SDS011;40968;52.342;5.528;2022-09-09T06:06:00;13.10;;;4.28;;
43160;SDS011;40968;52.342;5.528;2022-09-09T06:08:31;13.10;;;4.15;;
43160;SDS011;40968;52.342;5.528;2022-09-09T06:11:02;19.00;;;4.70;;
43160;SDS011;40968;52.342;5.528;2022-09-09T06:13:29;11.77;;;5.07;;
43160;SDS011;40968;52.342;5.528;2022-09-09T06:15:57;14.75;;;4.30;;
43160;SDS011;40968;52.342;5.528;2022-09-09T06:18:24;11.57;;;4.30;;
43160;SDS011;40968;52.342;5.528;2022-09-09T06:20:58;13.05;;;4.20;;
43160;SDS011;40968;52.342;5.528;2022-09-09T06:23:26;8.40;;;3.78;;
43160;SDS011;40968;52.342;5.528;2022-09-09T06:26:02;15.75;;;4.07;;
43160;SDS011;40968;52.342;5.528;2022-09-09T06:28:31;13.32;;;4.50;;
43160;SDS011;40968;52.342;5.528;2022-09-09T06:30:58;14.85;;;3.78;;
43160;SDS011;40968;52.342;5.528;2022-09-09T06:33:25;10.02;;;3.97;;
43160;SDS011;40968;52.342;5.528;2022-09-09T06:35:52;10.93;;;3.53;;
43160;SDS011;40968;52.342;5.528;2022-09-09T06:38:19;16.75;;;4.10;;
43160;SDS011;40968;52.342;5.528;2022-09-09T06:40:50;12.65;;;3.38;;
43160;SDS011;40968;52.342;5.528;2022-09-09T06:43:20;14.68;;;3.70;;
43160;SDS011;40968;52.342;5.528;2022-09-09T06:45:52;12.57;;;4.05;;
43160;SDS011;40968;52.342;5.528;2022-09-09T06:48:20;11.13;;;3.55;;
43160;SDS011;40968;52.342;5.528;2022-09-09T06:50:46;16.15;;;3.33;;
43160;SDS011;40968;52.342;5.528;2022-09-09T06:53:16;9.77;;;3.80;;
43160;SDS011;40968;52.342;5.528;2022-09-09T06:55:44;13.05;;;4.35;;
43160;SDS011;40968;52.342;5.528;2022-09-09T06:58:11;14.95;;;4.13;;
43160;SDS011;40968;52.342;5.528;2022-09-09T07:00:39;12.23;;;4.05;;
43160;SDS011;40968;52.342;5.528;2022-09-09T07:03:05;18.05;;;3.75;;
43160;SDS011;40968;52.342;5.528;2022-09-09T07:05:32;13.30;;;4.15;;
43160;SDS011;40968;52.342;5.528;2022-09-09T07:07:59;12.32;;;3.97;;
43160;SDS011;40968;52.342;5.528;2022-09-09T07:10:25;11.02;;;3.85;;
43160;SDS011;40968;52.342;5.528;2022-09-09T07:12:52;16.58;;;4.20;;
43160;SDS011;40968;52.342;5.528;2022-09-09T07:15:18;11.02;;;3.40;;
43160;SDS011;40968;52.342;5.528;2022-09-09T07:17:49;16.23;;;3.55;;
43160;SDS011;40968;52.342;5.528;2022-09-09T07:20:15;11.32;;;3.95;;
43160;SDS011;40968;52.342;5.528;2022-09-09T07:22:42;10.60;;;4.68;;
43160;SDS011;40968;52.342;5.528;2022-09-09T07:25:09;10.25;;;3.50;;
43160;SDS011;40968;52.342;5.528;2022-09-09T07:27:36;14.68;;;4.60;;
43160;SDS011;40968;52.342;5.528;2022-09-09T07:30:03;13.80;;;4.00;;
43160;SDS011;40968;52.342;5.528;2022-09-09T07:32:30;11.38;;;3.58;;
43160;SDS011;40968;52.342;5.528;2022-09-09T07:34:58;18.10;;;4.28;;
43160;SDS011;40968;52.342;5.528;2022-09-09T07:37:25;10.18;;;3.10;;
43160;SDS011;40968;52.342;5.528;2022-09-09T07:39:51;13.07;;;4.03;;
43160;SDS011;40968;52.342;5.528;2022-09-09T07:42:18;11.73;;;3.63;;
43160;SDS011;40968;52.342;5.528;2022-09-09T07:44:44;17.88;;;4.65;;
43160;SDS011;40968;52.342;5.528;2022-09-09T07:47:11;15.30;;;3.95;;
43160;SDS011;40968;52.342;5.528;2022-09-09T07:49:37;11.13;;;3.25;;
43160;SDS011;40968;52.342;5.528;2022-09-09T07:52:05;14.95;;;3.67;;
43160;SDS011;40968;52.342;5.528;2022-09-09T07:54:32;18.25;;;4.38;;
43160;SDS011;40968;52.342;5.528;2022-09-09T07:56:58;19.75;;;4.25;;
43160;SDS011;40968;52.342;5.528;2022-09-09T07:59:25;7.38;;;3.15;;
43160;SDS011;40968;52.342;5.528;2022-09-09T08:01:55;16.08;;;3.47;;
43160;SDS011;40968;52.342;5.528;2022-09-09T08:04:22;18.20;;;3.75;;
43160;SDS011;40968;52.342;5.528;2022-09-09T08:06:51;14.30;;;3.72;;
43160;SDS011;40968;52.342;5.528;2022-09-09T08:09:21;10.68;;;3.47;;
43160;SDS011;40968;52.342;5.528;2022-09-09T08:11:50;8.55;;;3.42;;
43160;SDS011;40968;52.342;5.528;2022-09-09T08:14:16;15.68;;;3.47;;
43160;SDS011;40968;52.342;5.528;2022-09-09T08:16:43;12.13;;;3.35;;
43160;SDS011;40968;52.342;5.528;2022-09-09T08:19:12;8.82;;;3.10;;
43160;SDS011;40968;52.342;5.528;2022-09-09T08:21:41;10.65;;;2.97;;
43160;SDS011;40968;52.342;5.528;2022-09-09T08:24:09;12.27;;;3.30;;
43160;SDS011;40968;52.342;5.528;2022-09-09T08:26:39;12.10;;;3.70;;
43160;SDS011;40968;52.342;5.528;2022-09-09T08:29:07;14.38;;;3.60;;
43160;SDS011;40968;52.342;5.528;2022-09-09T08:31:36;11.77;;;3.35;;
43160;SDS011;40968;52.342;5.528;2022-09-09T08:34:05;10.13;;;3.28;;
43160;SDS011;40968;52.342;5.528;2022-09-09T08:36:34;14.23;;;3.05;;
43160;SDS011;40968;52.342;5.528;2022-09-09T08:39:02;10.07;;;3.05;;
43160;SDS011;40968;52.342;5.528;2022-09-09T08:41:46;12.38;;;3.00;;
43160;SDS011;40968;52.342;5.528;2022-09-09T08:44:31;12.17;;;3.07;;
43160;SDS011;40968;52.342;5.528;2022-09-09T08:47:13;14.57;;;2.80;;
43160;SDS011;40968;52.342;5.528;2022-09-09T08:49:55;12.18;;;3.13;;
43160;SDS011;40968;52.342;5.528;2022-09-09T08:52:41;6.65;;;2.75;;
43160;SDS011;40968;52.342;5.528;2022-09-09T08:55:20;12.45;;;2.78;;
43160;SDS011;40968;52.342;5.528;2022-09-09T08:57:53;14.18;;;3.75;;
43160;SDS011;40968;52.342;5.528;2022-09-09T09:00:22;14.02;;;3.10;;
43160;SDS011;40968;52.342;5.528;2022-09-09T09:02:54;10.85;;;2.60;;
43160;SDS011;40968;52.342;5.528;2022-09-09T09:05:33;11.43;;;2.70;;
43160;SDS011;40968;52.342;5.528;2022-09-09T09:08:08;7.95;;;2.95;;
43160;SDS011;40968;52.342;5.528;2022-09-09T09:10:45;7.25;;;3.03;;
43160;SDS011;40968;52.342;5.528;2022-09-09T09:13:19;12.83;;;3.10;;
43160;SDS011;40968;52.342;5.528;2022-09-09T09:15:50;9.98;;;3.30;;
43160;SDS011;40968;52.342;5.528;2022-09-09T09:18:22;8.85;;;2.35;;
43160;SDS011;40968;52.342;5.528;2022-09-09T09:20:50;10.13;;;3.05;;
43160;SDS011;40968;52.342;5.528;2022-09-09T09:23:28;19.60;;;3.50;;
43160;SDS011;40968;52.342;5.528;2022-09-09T09:26:06;11.20;;;2.90;;
43160;SDS011;40968;52.342;5.528;2022-09-09T09:28:37;11.07;;;3.10;;
43160;SDS011;40968;52.342;5.528;2022-09-09T09:31:06;11.38;;;3.03;;
43160;SDS011;40968;52.342;5.528;2022-09-09T09:33:34;12.23;;;3.67;;
43160;SDS011;40968;52.342;5.528;2022-09-09T09:36:11;22.00;;;3.53;;
43160;SDS011;40968;52.342;5.528;2022-09-09T09:38:50;15.73;;;2.92;;
43160;SDS011;40968;52.342;5.528;2022-09-09T09:41:28;15.40;;;3.00;;
43160;SDS011;40968;52.342;5.528;2022-09-09T09:43:57;9.52;;;3.30;;
43160;SDS011;40968;52.342;5.528;2022-09-09T09:46:25;17.98;;;3.22;;
43160;SDS011;40968;52.342;5.528;2022-09-09T09:48:56;11.70;;;3.13;;
43160;SDS011;40968;52.342;5.528;2022-09-09T09:51:23;17.40;;;3.05;;
43160;SDS011;40968;52.342;5.528;2022-09-09T09:53:51;12.60;;;2.97;;
43160;SDS011;40968;52.342;5.528;2022-09-09T09:56:28;9.00;;;2.55;;
43160;SDS011;40968;52.342;5.528;2022-09-09T09:58:56;15.52;;;3.10;;
43160;SDS011;40968;52.342;5.528;2022-09-09T10:01:24;13.02;;;3.25;;
43160;SDS011;40968;52.342;5.528;2022-09-09T10:03:54;10.95;;;2.63;;
43160;SDS011;40968;52.342;5.528;2022-09-09T10:06:30;12.52;;;3.15;;
43160;SDS011;40968;52.342;5.528;2022-09-09T10:08:58;23.95;;;3.67;;
43160;SDS011;40968;52.342;5.528;2022-09-09T10:11:30;14.73;;;3.10;;
43160;SDS011;40968;52.342;5.528;2022-09-09T10:14:11;22.02;;;3.10;;
43160;SDS011;40968;52.342;5.528;2022-09-09T10:16:49;10.65;;;3.30;;
43160;SDS011;40968;52.342;5.528;2022-09-09T10:19:29;17.80;;;2.90;;
43160;SDS011;40968;52.342;5.528;2022-09-09T10:22:06;15.20;;;3.78;;
43160;SDS011;40968;52.342;5.528;2022-09-09T10:27:52;14.52;;;2.85;;
43160;SDS011;40968;52.342;5.528;2022-09-09T10:33:16;9.90;;;3.00;;
43160;SDS011;40968;52.342;5.528;2022-09-09T10:35:54;6.60;;;2.50;;
43160;SDS011;40968;52.342;5.528;2022-09-09T10:38:32;9.57;;;2.67;;
43160;SDS011;40968;52.342;5.528;2022-09-09T10:41:15;8.88;;;2.80;;
43160;SDS011;40968;52.342;5.528;2022-09-09T10:43:52;15.95;;;3.08;;
43160;SDS011;40968;52.342;5.528;2022-09-09T10:46:41;11.77;;;2.67;;
43160;SDS011;40968;52.342;5.528;2022-09-09T10:49:21;11.07;;;2.70;;
43160;SDS011;40968;52.342;5.528;2022-09-09T10:52:01;14.00;;;3.67;;
43160;SDS011;40968;52.342;5.528;2022-09-09T10:54:36;9.85;;;3.45;;
43160;SDS011;40968;52.342;5.528;2022-09-09T10:57:18;14.10;;;2.95;;
43160;SDS011;40968;52.342;5.528;2022-09-09T10:59:53;18.17;;;3.58;;
43160;SDS011;40968;52.342;5.528;2022-09-09T11:02:26;14.57;;;3.35;;
43160;SDS011;40968;52.342;5.528;2022-09-09T11:04:55;13.32;;;3.00;;
43160;SDS011;40968;52.342;5.528;2022-09-09T11:07:27;9.75;;;3.65;;
43160;SDS011;40968;52.342;5.528;2022-09-09T11:10:01;11.15;;;3.53;;
43160;SDS011;40968;52.342;5.528;2022-09-09T11:12:32;11.45;;;3.58;;
43160;SDS011;40968;52.342;5.528;2022-09-09T11:15:05;12.95;;;3.17;;
43160;SDS011;40968;52.342;5.528;2022-09-09T11:17:40;15.40;;;3.45;;
43160;SDS011;40968;52.342;5.528;2022-09-09T11:20:14;8.68;;;2.90;;
43160;SDS011;40968;52.342;5.528;2022-09-09T11:22:43;9.18;;;2.65;;
43160;SDS011;40968;52.342;5.528;2022-09-09T11:25:15;8.23;;;2.33;;
43160;SDS011;40968;52.342;5.528;2022-09-09T11:27:50;8.90;;;2.58;;
43160;SDS011;40968;52.342;5.528;2022-09-09T11:30:32;15.30;;;3.30;;
43160;SDS011;40968;52.342;5.528;2022-09-09T11:33:18;11.95;;;2.55;;
43160;SDS011;40968;52.342;5.528;2022-09-09T11:36:15;9.77;;;2.50;;
43160;SDS011;40968;52.342;5.528;2022-09-09T11:38:54;12.23;;;3.20;;
43160;SDS011;40968;52.342;5.528;2022-09-09T11:41:32;7.07;;;2.75;;
43160;SDS011;40968;52.342;5.528;2022-09-09T11:44:09;12.10;;;2.60;;
43160;SDS011;40968;52.342;5.528;2022-09-09T11:46:38;4.90;;;2.38;;
43160;SDS011;40968;52.342;5.528;2022-09-09T11:51:53;12.18;;;3.33;;
43160;SDS011;40968;52.342;5.528;2022-09-09T11:54:29;10.63;;;3.33;;
43160;SDS011;40968;52.342;5.528;2022-09-09T11:56:57;9.05;;;2.30;;
43160;SDS011;40968;52.342;5.528;2022-09-09T11:59:25;13.70;;;2.80;;
43160;SDS011;40968;52.342;5.528;2022-09-09T12:01:55;7.15;;;2.97;;
43160;SDS011;40968;52.342;5.528;2022-09-09T12:04:32;8.20;;;2.90;;
43160;SDS011;40968;52.342;5.528;2022-09-09T12:07:02;12.88;;;3.50;;
43160;SDS011;40968;52.342;5.528;2022-09-09T12:09:32;10.10;;;2.75;;
43160;SDS011;40968;52.342;5.528;2022-09-09T12:12:24;7.65;;;3.00;;
43160;SDS011;40968;52.342;5.528;2022-09-09T12:17:46;10.65;;;3.10;;
43160;SDS011;40968;52.342;5.528;2022-09-09T12:20:32;8.18;;;2.65;;
43160;SDS011;40968;52.342;5.528;2022-09-09T12:25:54;8.70;;;2.55;;
43160;SDS011;40968;52.342;5.528;2022-09-09T12:28:39;8.98;;;2.80;;
43160;SDS011;40968;52.342;5.528;2022-09-09T12:31:17;12.85;;;2.92;;
43160;SDS011;40968;52.342;5.528;2022-09-09T12:33:48;8.40;;;3.20;;
43160;SDS011;40968;52.342;5.528;2022-09-09T12:36:17;10.80;;;3.58;;
43160;SDS011;40968;52.342;5.528;2022-09-09T12:38:45;9.87;;;3.23;;
43160;SDS011;40968;52.342;5.528;2022-09-09T12:41:19;12.30;;;3.35;;
43160;SDS011;40968;52.342;5.528;2022-09-09T12:43:47;12.40;;;3.58;;
43160;SDS011;40968;52.342;5.528;2022-09-09T12:46:17;16.42;;;3.15;;
43160;SDS011;40968;52.342;5.528;2022-09-09T12:48:51;10.88;;;3.22;;
43160;SDS011;40968;52.342;5.528;2022-09-09T12:53:52;16.52;;;3.30;;
43160;SDS011;40968;52.342;5.528;2022-09-09T12:56:20;11.40;;;3.15;;
43160;SDS011;40968;52.342;5.528;2022-09-09T12:58:49;7.88;;;3.00;;
43160;SDS011;40968;52.342;5.528;2022-09-09T13:01:20;10.27;;;2.95;;
43160;SDS011;40968;52.342;5.528;2022-09-09T13:03:48;9.32;;;2.80;;
43160;SDS011;40968;52.342;5.528;2022-09-09T13:06:18;8.50;;;3.17;;
43160;SDS011;40968;52.342;5.528;2022-09-09T13:08:51;11.35;;;2.85;;
43160;SDS011;40968;52.342;5.528;2022-09-09T13:11:20;14.38;;;4.10;;
43160;SDS011;40968;52.342;5.528;2022-09-09T13:13:50;9.98;;;3.00;;
43160;SDS011;40968;52.342;5.528;2022-09-09T13:16:19;5.13;;;2.92;;
43160;SDS011;40968;52.342;5.528;2022-09-09T13:18:48;9.18;;;2.88;;
43160;SDS011;40968;52.342;5.528;2022-09-09T13:21:15;6.93;;;2.83;;
43160;SDS011;40968;52.342;5.528;2022-09-09T13:23:42;10.57;;;3.92;;
43160;SDS011;40968;52.342;5.528;2022-09-09T13:26:23;13.60;;;3.38;;
43160;SDS011;40968;52.342;5.528;2022-09-09T13:28:51;12.77;;;3.10;;
43160;SDS011;40968;52.342;5.528;2022-09-09T13:31:20;11.00;;;3.72;;
43160;SDS011;40968;52.342;5.528;2022-09-09T13:33:48;7.72;;;3.17;;
43160;SDS011;40968;52.342;5.528;2022-09-09T13:36:14;13.40;;;3.40;;
43160;SDS011;40968;52.342;5.528;2022-09-09T13:38:52;9.95;;;3.45;;
43160;SDS011;40968;52.342;5.528;2022-09-09T13:41:23;11.82;;;3.33;;
43160;SDS011;40968;52.342;5.528;2022-09-09T13:43:51;8.52;;;2.90;;
43160;SDS011;40968;52.342;5.528;2022-09-09T13:46:28;5.32;;;2.58;;
43160;SDS011;40968;52.342;5.528;2022-09-09T13:49:00;8.68;;;3.08;;
43160;SDS011;40968;52.342;5.528;2022-09-09T13:51:44;7.20;;;2.40;;
43160;SDS011;40968;52.342;5.528;2022-09-09T13:54:14;6.43;;;3.10;;
43160;SDS011;40968;52.342;5.528;2022-09-09T13:56:43;6.50;;;3.00;;
43160;SDS011;40968;52.342;5.528;2022-09-09T13:59:11;8.77;;;2.97;;
43160;SDS011;40968;52.342;5.528;2022-09-09T14:01:40;12.02;;;3.05;;
43160;SDS011;40968;52.342;5.528;2022-09-09T14:04:07;11.15;;;3.35;;
43160;SDS011;40968;52.342;5.528;2022-09-09T14:06:35;10.93;;;3.03;;
43160;SDS011;40968;52.342;5.528;2022-09-09T14:09:10;15.80;;;3.63;;
43160;SDS011;40968;52.342;5.528;2022-09-09T14:11:38;12.38;;;3.63;;
43160;SDS011;40968;52.342;5.528;2022-09-09T14:14:06;9.73;;;3.05;;
43160;SDS011;40968;52.342;5.528;2022-09-09T14:16:33;9.65;;;3.28;;
43160;SDS011;40968;52.342;5.528;2022-09-09T14:19:00;7.53;;;3.28;;
43160;SDS011;40968;52.342;5.528;2022-09-09T14:21:27;8.35;;;3.10;;
43160;SDS011;40968;52.342;5.528;2022-09-09T14:23:57;6.97;;;2.88;;
43160;SDS011;40968;52.342;5.528;2022-09-09T14:26:24;11.98;;;3.25;;
43160;SDS011;40968;52.342;5.528;2022-09-09T14:28:51;7.70;;;3.33;;
43160;SDS011;40968;52.342;5.528;2022-09-09T14:31:19;7.75;;;2.67;;
43160;SDS011;40968;52.342;5.528;2022-09-09T14:33:46;10.52;;;2.80;;
43160;SDS011;40968;52.342;5.528;2022-09-09T14:36:12;9.48;;;2.85;;
43160;SDS011;40968;52.342;5.528;2022-09-09T14:38:40;8.95;;;3.30;;
43160;SDS011;40968;52.342;5.528;2022-09-09T14:41:08;10.05;;;3.03;;
43160;SDS011;40968;52.342;5.528;2022-09-09T14:43:37;8.23;;;2.80;;
43160;SDS011;40968;52.342;5.528;2022-09-09T14:46:07;8.93;;;2.90;;
43160;SDS011;40968;52.342;5.528;2022-09-09T14:48:36;8.25;;;3.55;;
43160;SDS011;40968;52.342;5.528;2022-09-09T14:51:06;9.40;;;3.13;;
43160;SDS011;40968;52.342;5.528;2022-09-09T14:53:33;10.82;;;3.00;;
43160;SDS011;40968;52.342;5.528;2022-09-09T14:56:03;9.80;;;3.17;;
43160;SDS011;40968;52.342;5.528;2022-09-09T14:58:31;10.27;;;2.95;;
43160;SDS011;40968;52.342;5.528;2022-09-09T15:01:01;7.18;;;2.72;;
43160;SDS011;40968;52.342;5.528;2022-09-09T15:03:29;9.82;;;3.13;;
43160;SDS011;40968;52.342;5.528;2022-09-09T15:05:57;11.93;;;2.72;;
43160;SDS011;40968;52.342;5.528;2022-09-09T15:08:24;8.48;;;2.58;;
43160;SDS011;40968;52.342;5.528;2022-09-09T15:10:51;6.22;;;2.65;;
43160;SDS011;40968;52.342;5.528;2022-09-09T15:13:26;9.82;;;3.22;;
43160;SDS011;40968;52.342;5.528;2022-09-09T15:15:53;6.38;;;2.60;;
43160;SDS011;40968;52.342;5.528;2022-09-09T15:18:20;13.10;;;3.28;;
43160;SDS011;40968;52.342;5.528;2022-09-09T15:20:48;7.78;;;2.80;;
43160;SDS011;40968;52.342;5.528;2022-09-09T15:23:16;7.30;;;2.45;;